sensor_id;sensor_type;location;lat;lon;timestamp;pressure;altitude;pressure_sealevel;temperature;humidity
66857;BME280;53766;50.280;19.160;2023-11-21T00:01:20;97610.50;;;15.24;62.48
66857;BME280;53766;50.280;19.160;2023-11-21T00:03:48;97610.75;;;15.22;62.60
66857;BME280;53766;50.280;19.160;2023-11-21T00:06:15;97616.84;;;15.23;62.50
66857;BME280;53766;50.280;19.160;2023-11-21T00:08:43;97622.97;;;15.23;62.63
66857;BME280;53766;50.280;19.160;2023-11-21T00:11:10;97629.06;;;15.24;62.57
66857;BME280;53766;50.280;19.160;2023-11-21T00:13:37;97633.56;;;15.23;62.33
66857;BME280;53766;50.280;19.160;2023-11-21T00:16:04;97626.66;;;15.22;62.47
66857;BME280;53766;50.280;19.160;2023-11-21T00:18:32;97631.13;;;15.22;62.48
66857;BME280;53766;50.280;19.160;2023-11-21T00:20:59;97629.31;;;15.22;62.62
66857;BME280;53766;50.280;19.160;2023-11-21T00:23:26;97626.66;;;15.22;62.46
66857;BME280;53766;50.280;19.160;2023-11-21T00:25:53;97631.97;;;15.22;62.49
66857;BME280;53766;50.280;19.160;2023-11-21T00:28:21;97632.16;;;15.21;62.53
66857;BME280;53766;50.280;19.160;2023-11-21T00:30:49;97637.25;;;15.22;62.35
66857;BME280;53766;50.280;19.160;2023-11-21T00:33:16;97639.28;;;15.20;62.46
66857;BME280;53766;50.280;19.160;2023-11-21T00:35:43;97635.63;;;15.21;62.40
66857;BME280;53766;50.280;19.160;2023-11-21T00:38:11;97638.50;;;15.20;62.52
66857;BME280;53766;50.280;19.160;2023-11-21T00:40:38;97645.59;;;15.19;62.46
66857;BME280;53766;50.280;19.160;2023-11-21T00:43:05;97643.78;;;15.20;62.40
66857;BME280;53766;50.280;19.160;2023-11-21T00:45:32;97642.75;;;15.21;62.24
66857;BME280;53766;50.280;19.160;2023-11-21T00:48:00;97642.16;;;15.19;62.38
66857;BME280;53766;50.280;19.160;2023-11-21T00:50:27;97639.28;;;15.20;62.47
66857;BME280;53766;50.280;19.160;2023-11-21T00:52:55;97642.94;;;15.19;62.46
66857;BME280;53766;50.280;19.160;2023-11-21T00:55:22;97637.66;;;15.19;62.35
66857;BME280;53766;50.280;19.160;2023-11-21T00:57:50;97635.00;;;15.19;62.56
66857;BME280;53766;50.280;19.160;2023-11-21T01:00:17;97630.72;;;15.18;62.38
66857;BME280;53766;50.280;19.160;2023-11-21T01:02:45;97629.06;;;15.17;62.56
66857;BME280;53766;50.280;19.160;2023-11-21T01:05:12;97631.53;;;15.19;62.70
66857;BME280;53766;50.280;19.160;2023-11-21T01:07:39;97625.41;;;15.18;62.52
66857;BME280;53766;50.280;19.160;2023-11-21T01:10:07;97635.22;;;15.18;62.42
66857;BME280;53766;50.280;19.160;2023-11-21T01:12:35;97637.66;;;15.19;62.53
66857;BME280;53766;50.280;19.160;2023-11-21T01:15:04;97630.72;;;15.18;62.45
66857;BME280;53766;50.280;19.160;2023-11-21T01:17:34;97626.22;;;15.19;62.54
66857;BME280;53766;50.280;19.160;2023-11-21T01:20:02;97633.38;;;15.18;62.73
66857;BME280;53766;50.280;19.160;2023-11-21T01:22:31;97629.06;;;15.17;62.47
66857;BME280;53766;50.280;19.160;2023-11-21T01:24:58;97628.06;;;15.18;62.49
66857;BME280;53766;50.280;19.160;2023-11-21T01:27:25;97630.72;;;15.18;62.39
66857;BME280;53766;50.280;19.160;2023-11-21T01:29:53;97629.06;;;15.17;62.39
66857;BME280;53766;50.280;19.160;2023-11-21T01:32:21;97626.41;;;15.17;62.41
66857;BME280;53766;50.280;19.160;2023-11-21T01:34:50;97623.78;;;15.17;62.32
66857;BME280;53766;50.280;19.160;2023-11-21T01:37:17;97629.06;;;15.17;62.27
66857;BME280;53766;50.280;19.160;2023-11-21T01:39:44;97633.38;;;15.18;62.56
66857;BME280;53766;50.280;19.160;2023-11-21T01:42:12;97637.03;;;15.17;62.52
66857;BME280;53766;50.280;19.160;2023-11-21T01:44:40;97639.69;;;15.17;62.49
66857;BME280;53766;50.280;19.160;2023-11-21T01:47:07;97642.34;;;15.17;62.47
66857;BME280;53766;50.280;19.160;2023-11-21T01:49:35;97641.34;;;15.18;62.33
66857;BME280;53766;50.280;19.160;2023-11-21T01:52:03;97640.53;;;15.18;62.39
66857;BME280;53766;50.280;19.160;2023-11-21T01:54:31;97645.81;;;15.18;62.28
66857;BME280;53766;50.280;19.160;2023-11-21T01:56:59;97638.88;;;15.17;62.40
66857;BME280;53766;50.280;19.160;2023-11-21T01:59:32;97638.06;;;15.16;62.29
66857;BME280;53766;50.280;19.160;2023-11-21T02:02:01;97650.28;;;15.17;62.45
66857;BME280;53766;50.280;19.160;2023-11-21T02:04:28;97648.69;;;15.16;62.48
66857;BME280;53766;50.280;19.160;2023-11-21T02:06:55;97648.69;;;15.16;62.46
66857;BME280;53766;50.280;19.160;2023-11-21T02:09:24;97648.69;;;15.16;62.31
66857;BME280;53766;50.280;19.160;2023-11-21T02:11:51;97643.38;;;15.16;62.46
66857;BME280;53766;50.280;19.160;2023-11-21T02:14:21;97648.69;;;15.16;62.24
66857;BME280;53766;50.280;19.160;2023-11-21T02:16:50;97646.03;;;15.16;62.47
66857;BME280;53766;50.280;19.160;2023-11-21T02:19:18;97648.69;;;15.16;62.49
66857;BME280;53766;50.280;19.160;2023-11-21T02:21:53;97648.69;;;15.16;62.31
66857;BME280;53766;50.280;19.160;2023-11-21T02:24:20;97654.78;;;15.17;62.34
66857;BME280;53766;50.280;19.160;2023-11-21T02:26:48;97651.31;;;15.16;62.17
66857;BME280;53766;50.280;19.160;2023-11-21T02:29:19;97645.22;;;15.16;62.34
66857;BME280;53766;50.280;19.160;2023-11-21T02:31:51;97647.03;;;15.15;62.24
66857;BME280;53766;50.280;19.160;2023-11-21T02:34:18;97656.00;;;15.14;62.48
66857;BME280;53766;50.280;19.160;2023-11-21T02:36:45;97650.50;;;15.16;62.42
66857;BME280;53766;50.280;19.160;2023-11-21T02:39:14;97654.97;;;15.15;62.58
66857;BME280;53766;50.280;19.160;2023-11-21T02:41:42;97660.50;;;15.14;62.41
66857;BME280;53766;50.280;19.160;2023-11-21T02:44:09;97656.81;;;15.15;62.45
66857;BME280;53766;50.280;19.160;2023-11-21T02:46:37;97662.94;;;15.15;62.38
66857;BME280;53766;50.280;19.160;2023-11-21T02:49:04;97650.72;;;15.14;62.22
66857;BME280;53766;50.280;19.160;2023-11-21T02:51:33;97661.31;;;15.14;62.42
66857;BME280;53766;50.280;19.160;2023-11-21T02:54:01;97659.66;;;15.13;62.33
66857;BME280;53766;50.280;19.160;2023-11-21T02:56:30;97661.31;;;15.14;62.38
66857;BME280;53766;50.280;19.160;2023-11-21T02:58:57;97660.50;;;15.14;62.17
66857;BME280;53766;50.280;19.160;2023-11-21T03:01:24;97659.66;;;15.13;62.33
66857;BME280;53766;50.280;19.160;2023-11-21T03:03:52;97658.66;;;15.14;62.44
66857;BME280;53766;50.280;19.160;2023-11-21T03:06:19;97658.84;;;15.13;62.25
66857;BME280;53766;50.280;19.160;2023-11-21T03:08:47;97663.34;;;15.12;62.27
66857;BME280;53766;50.280;19.160;2023-11-21T03:11:14;97660.50;;;15.14;62.40
66857;BME280;53766;50.280;19.160;2023-11-21T03:13:41;97655.41;;;15.12;62.13
66857;BME280;53766;50.280;19.160;2023-11-21T03:16:09;97666.63;;;15.14;62.38
66857;BME280;53766;50.280;19.160;2023-11-21T03:18:38;97666.81;;;15.13;62.41
66857;BME280;53766;50.280;19.160;2023-11-21T03:21:05;97665.81;;;15.14;62.27
66857;BME280;53766;50.280;19.160;2023-11-21T03:23:36;97671.13;;;15.14;62.22
66857;BME280;53766;50.280;19.160;2023-11-21T03:26:03;97673.16;;;15.12;62.40
66857;BME280;53766;50.280;19.160;2023-11-21T03:28:31;97673.97;;;15.12;62.20
66857;BME280;53766;50.280;19.160;2023-11-21T03:30:58;97679.06;;;15.14;62.38
66857;BME280;53766;50.280;19.160;2023-11-21T03:33:25;97675.59;;;15.13;62.27
66857;BME280;53766;50.280;19.160;2023-11-21T03:35:53;97673.97;;;15.12;62.26
66857;BME280;53766;50.280;19.160;2023-11-21T03:38:20;97673.97;;;15.12;62.21
66857;BME280;53766;50.280;19.160;2023-11-21T03:40:47;97684.56;;;15.12;62.38
66857;BME280;53766;50.280;19.160;2023-11-21T03:43:15;97680.06;;;15.13;62.38
66857;BME280;53766;50.280;19.160;2023-11-21T03:45:42;97684.56;;;15.12;62.42
66857;BME280;53766;50.280;19.160;2023-11-21T03:48:10;97687.22;;;15.12;62.18
66857;BME280;53766;50.280;19.160;2023-11-21T03:50:39;97685.59;;;15.11;62.35
66857;BME280;53766;50.280;19.160;2023-11-21T03:53:06;97681.91;;;15.12;62.28
66857;BME280;53766;50.280;19.160;2023-11-21T03:55:34;97689.88;;;15.12;62.56
66857;BME280;53766;50.280;19.160;2023-11-21T03:58:01;97680.31;;;15.11;62.25
66857;BME280;53766;50.280;19.160;2023-11-21T04:00:28;97684.38;;;15.14;62.18
66857;BME280;53766;50.280;19.160;2023-11-21T04:02:56;97679.25;;;15.12;62.33
66857;BME280;53766;50.280;19.160;2023-11-21T04:05:23;97688.03;;;15.13;62.30
66857;BME280;53766;50.280;19.160;2023-11-21T04:07:50;97689.88;;;15.12;62.14
66857;BME280;53766;50.280;19.160;2023-11-21T04:10:18;97689.88;;;15.12;62.25
66857;BME280;53766;50.280;19.160;2023-11-21T04:12:46;97689.88;;;15.12;62.34
66857;BME280;53766;50.280;19.160;2023-11-21T04:15:13;97685.59;;;15.11;62.41
66857;BME280;53766;50.280;19.160;2023-11-21T04:17:41;97688.25;;;15.11;62.06
66857;BME280;53766;50.280;19.160;2023-11-21T04:20:09;97688.25;;;15.11;62.33
66857;BME280;53766;50.280;19.160;2023-11-21T04:22:40;97689.88;;;15.12;62.33
66857;BME280;53766;50.280;19.160;2023-11-21T04:25:09;97689.88;;;15.12;62.39
66857;BME280;53766;50.280;19.160;2023-11-21T04:27:41;97692.72;;;15.11;62.23
66857;BME280;53766;50.280;19.160;2023-11-21T04:30:11;97688.25;;;15.11;62.30
66857;BME280;53766;50.280;19.160;2023-11-21T04:32:38;97693.56;;;15.11;62.28
66857;BME280;53766;50.280;19.160;2023-11-21T04:35:09;97692.72;;;15.11;62.27
66857;BME280;53766;50.280;19.160;2023-11-21T04:37:36;97695.38;;;15.11;62.29
66857;BME280;53766;50.280;19.160;2023-11-21T04:40:04;97690.28;;;15.09;62.29
66857;BME280;53766;50.280;19.160;2023-11-21T04:42:34;97693.56;;;15.11;62.29
66857;BME280;53766;50.280;19.160;2023-11-21T04:45:06;97697.22;;;15.10;62.29
66857;BME280;53766;50.280;19.160;2023-11-21T04:47:37;97692.72;;;15.11;62.31
66857;BME280;53766;50.280;19.160;2023-11-21T04:50:04;97709.47;;;15.11;62.28
66857;BME280;53766;50.280;19.160;2023-11-21T04:52:32;97710.28;;;15.12;62.01
66857;BME280;53766;50.280;19.160;2023-11-21T04:55:00;97720.09;;;15.11;62.17
66857;BME280;53766;50.280;19.160;2023-11-21T04:57:29;97723.72;;;15.10;62.00
66857;BME280;53766;50.280;19.160;2023-11-21T04:59:56;97715.78;;;15.10;62.25
66857;BME280;53766;50.280;19.160;2023-11-21T05:02:23;97718.44;;;15.10;62.07
66857;BME280;53766;50.280;19.160;2023-11-21T05:05:02;97721.91;;;15.11;62.04
66857;BME280;53766;50.280;19.160;2023-11-21T05:07:29;97714.78;;;15.11;62.24
66857;BME280;53766;50.280;19.160;2023-11-21T05:09:58;97717.63;;;15.10;62.20
66857;BME280;53766;50.280;19.160;2023-11-21T05:12:26;97722.94;;;15.10;62.08
66857;BME280;53766;50.280;19.160;2023-11-21T05:14:53;97723.72;;;15.10;62.25
66857;BME280;53766;50.280;19.160;2023-11-21T05:17:21;97723.72;;;15.10;61.95
66857;BME280;53766;50.280;19.160;2023-11-21T05:19:49;97729.03;;;15.10;62.02
66857;BME280;53766;50.280;19.160;2023-11-21T05:22:16;97722.94;;;15.10;62.16
66857;BME280;53766;50.280;19.160;2023-11-21T05:24:44;97738.84;;;15.10;62.05
66857;BME280;53766;50.280;19.160;2023-11-21T05:27:11;97734.34;;;15.10;62.13
66857;BME280;53766;50.280;19.160;2023-11-21T05:29:39;97737.00;;;15.10;62.28
66857;BME280;53766;50.280;19.160;2023-11-21T05:32:06;97738.03;;;15.09;62.14
66857;BME280;53766;50.280;19.160;2023-11-21T05:34:34;97740.69;;;15.09;62.18
66857;BME280;53766;50.280;19.160;2023-11-21T05:37:01;97743.34;;;15.09;62.02
66857;BME280;53766;50.280;19.160;2023-11-21T05:39:29;97743.34;;;15.09;62.33
66857;BME280;53766;50.280;19.160;2023-11-21T05:41:56;97748.63;;;15.09;61.85
66857;BME280;53766;50.280;19.160;2023-11-21T05:44:24;97748.63;;;15.09;62.29
66857;BME280;53766;50.280;19.160;2023-11-21T05:46:52;97746.97;;;15.08;62.33
66857;BME280;53766;50.280;19.160;2023-11-21T05:49:19;97747.78;;;15.09;62.14
66857;BME280;53766;50.280;19.160;2023-11-21T05:51:49;97748.63;;;15.09;61.92
66857;BME280;53766;50.280;19.160;2023-11-21T05:54:17;97756.59;;;15.09;62.03
66857;BME280;53766;50.280;19.160;2023-11-21T05:56:44;97749.63;;;15.08;62.14
66857;BME280;53766;50.280;19.160;2023-11-21T05:59:11;97746.97;;;15.08;62.25
66857;BME280;53766;50.280;19.160;2023-11-21T06:01:39;97754.94;;;15.08;62.31
66857;BME280;53766;50.280;19.160;2023-11-21T06:04:06;97758.41;;;15.09;62.37
66857;BME280;53766;50.280;19.160;2023-11-21T06:06:35;97761.06;;;15.09;62.37
66857;BME280;53766;50.280;19.160;2023-11-21T06:09:03;97766.16;;;15.10;62.53
66857;BME280;53766;50.280;19.160;2023-11-21T06:11:30;97770.66;;;15.10;62.31
66857;BME280;53766;50.280;19.160;2023-11-21T06:13:58;97771.47;;;15.10;62.49
66857;BME280;53766;50.280;19.160;2023-11-21T06:16:25;97769.00;;;15.09;62.67
66857;BME280;53766;50.280;19.160;2023-11-21T06:18:53;97768.00;;;15.10;62.70
66857;BME280;53766;50.280;19.160;2023-11-21T06:21:20;97776.16;;;15.08;62.56
66857;BME280;53766;50.280;19.160;2023-11-21T06:23:47;97780.84;;;15.06;62.58
66857;BME280;53766;50.280;19.160;2023-11-21T06:26:18;97787.38;;;15.04;62.35
66857;BME280;53766;50.280;19.160;2023-11-21T06:28:45;97785.94;;;15.01;62.14
66857;BME280;53766;50.280;19.160;2023-11-21T06:31:13;97794.25;;;14.98;62.34
66857;BME280;53766;50.280;19.160;2023-11-21T06:33:41;97796.28;;;14.96;62.16
66857;BME280;53766;50.280;19.160;2023-11-21T06:36:08;97794.84;;;14.93;62.30
66857;BME280;53766;50.280;19.160;2023-11-21T06:38:38;97795.06;;;14.92;61.95
66857;BME280;53766;50.280;19.160;2023-11-21T06:41:05;97794.03;;;14.93;61.87
66857;BME280;53766;50.280;19.160;2023-11-21T06:43:33;97799.34;;;14.93;61.64
66857;BME280;53766;50.280;19.160;2023-11-21T06:46:00;97795.69;;;14.94;61.66
66857;BME280;53766;50.280;19.160;2023-11-21T06:48:28;97797.31;;;14.95;61.57
66857;BME280;53766;50.280;19.160;2023-11-21T06:50:57;97800.78;;;14.95;61.79
66857;BME280;53766;50.280;19.160;2023-11-21T06:53:24;97796.28;;;14.96;61.71
66857;BME280;53766;50.280;19.160;2023-11-21T06:55:51;97798.94;;;14.96;62.00
66857;BME280;53766;50.280;19.160;2023-11-21T06:58:19;97798.75;;;14.97;61.96
66857;BME280;53766;50.280;19.160;2023-11-21T07:00:46;97799.56;;;14.98;62.28
66857;BME280;53766;50.280;19.160;2023-11-21T07:03:15;97800.41;;;14.98;62.15
66857;BME280;53766;50.280;19.160;2023-11-21T07:05:43;97798.75;;;14.97;62.35
66857;BME280;53766;50.280;19.160;2023-11-21T07:08:10;97799.56;;;14.98;62.24
66857;BME280;53766;50.280;19.160;2023-11-21T07:10:37;97803.06;;;14.98;62.30
66857;BME280;53766;50.280;19.160;2023-11-21T07:13:05;97806.53;;;14.99;62.24
66857;BME280;53766;50.280;19.160;2023-11-21T07:15:32;97806.53;;;14.99;62.16
66857;BME280;53766;50.280;19.160;2023-11-21T07:17:59;97807.34;;;14.99;62.20
66857;BME280;53766;50.280;19.160;2023-11-21T07:20:27;97808.13;;;15.00;62.46
66857;BME280;53766;50.280;19.160;2023-11-21T07:22:55;97812.63;;;14.99;62.22
66857;BME280;53766;50.280;19.160;2023-11-21T07:25:23;97820.41;;;15.01;62.24
66857;BME280;53766;50.280;19.160;2023-11-21T07:27:50;97815.09;;;15.01;62.33
66857;BME280;53766;50.280;19.160;2023-11-21T07:30:17;97815.09;;;15.01;62.44
66857;BME280;53766;50.280;19.160;2023-11-21T07:32:45;97820.41;;;15.01;62.32
66857;BME280;53766;50.280;19.160;2023-11-21T07:35:14;97821.41;;;15.00;62.19
66857;BME280;53766;50.280;19.160;2023-11-21T07:37:42;97820.41;;;15.01;62.33
66857;BME280;53766;50.280;19.160;2023-11-21T07:40:10;97816.94;;;15.00;62.30
66857;BME280;53766;50.280;19.160;2023-11-21T07:42:39;97819.59;;;15.00;62.37
66857;BME280;53766;50.280;19.160;2023-11-21T07:45:06;97816.72;;;15.02;62.30
66857;BME280;53766;50.280;19.160;2023-11-21T07:47:34;97819.38;;;15.02;62.26
66857;BME280;53766;50.280;19.160;2023-11-21T07:50:02;97822.03;;;15.02;62.29
66857;BME280;53766;50.280;19.160;2023-11-21T07:52:30;97823.06;;;15.01;62.32
66857;BME280;53766;50.280;19.160;2023-11-21T07:54:57;97823.69;;;15.03;62.26
66857;BME280;53766;50.280;19.160;2023-11-21T07:57:24;97825.31;;;15.04;62.06
66857;BME280;53766;50.280;19.160;2023-11-21T07:59:53;97829.78;;;15.04;62.02
66857;BME280;53766;50.280;19.160;2023-11-21T08:02:23;97827.31;;;15.02;61.96
66857;BME280;53766;50.280;19.160;2023-11-21T08:04:50;97827.94;;;15.04;62.16
66857;BME280;53766;50.280;19.160;2023-11-21T08:07:18;97827.16;;;15.04;62.01
66857;BME280;53766;50.280;19.160;2023-11-21T08:09:45;97833.25;;;15.04;62.10
66857;BME280;53766;50.280;19.160;2023-11-21T08:12:14;97838.56;;;15.04;62.09
66857;BME280;53766;50.280;19.160;2023-11-21T08:14:41;97836.94;;;15.03;61.83
66857;BME280;53766;50.280;19.160;2023-11-21T08:17:10;97849.97;;;15.05;62.11
66857;BME280;53766;50.280;19.160;2023-11-21T08:19:37;97851.81;;;15.04;61.99
66857;BME280;53766;50.280;19.160;2023-11-21T08:22:04;97844.69;;;15.05;62.06
66857;BME280;53766;50.280;19.160;2023-11-21T08:24:34;97846.50;;;15.04;62.10
66857;BME280;53766;50.280;19.160;2023-11-21T08:27:02;97850.19;;;15.03;62.13
66857;BME280;53766;50.280;19.160;2023-11-21T08:29:31;97847.31;;;15.05;62.08
66857;BME280;53766;50.280;19.160;2023-11-21T08:31:58;97849.16;;;15.04;61.92
66857;BME280;53766;50.280;19.160;2023-11-21T08:34:27;97859.78;;;15.04;61.95
66857;BME280;53766;50.280;19.160;2023-11-21T08:36:55;97867.72;;;15.04;62.08
66857;BME280;53766;50.280;19.160;2023-11-21T08:39:24;97861.63;;;15.04;61.77
66857;BME280;53766;50.280;19.160;2023-11-21T08:41:51;97858.78;;;15.05;62.03
66857;BME280;53766;50.280;19.160;2023-11-21T08:44:18;97862.44;;;15.04;62.06
66857;BME280;53766;50.280;19.160;2023-11-21T08:46:46;97862.44;;;15.04;62.07
66857;BME280;53766;50.280;19.160;2023-11-21T08:49:13;97862.44;;;15.04;61.89
66857;BME280;53766;50.280;19.160;2023-11-21T08:51:44;97865.09;;;15.04;61.91
66857;BME280;53766;50.280;19.160;2023-11-21T08:54:11;97868.53;;;15.05;61.78
66857;BME280;53766;50.280;19.160;2023-11-21T08:56:39;97868.53;;;15.05;61.92
66857;BME280;53766;50.280;19.160;2023-11-21T08:59:06;97872.03;;;15.05;61.80
66857;BME280;53766;50.280;19.160;2023-11-21T09:01:35;97873.03;;;15.04;61.88
66857;BME280;53766;50.280;19.160;2023-11-21T09:04:02;97871.19;;;15.05;61.92
66857;BME280;53766;50.280;19.160;2023-11-21T09:06:30;97873.03;;;15.04;61.71
66857;BME280;53766;50.280;19.160;2023-11-21T09:08:57;97880.19;;;15.04;61.86
66857;BME280;53766;50.280;19.160;2023-11-21T09:11:24;97881.81;;;15.05;61.74
66857;BME280;53766;50.280;19.160;2023-11-21T09:13:54;97873.03;;;15.04;62.01
66857;BME280;53766;50.280;19.160;2023-11-21T09:16:21;97871.41;;;15.03;61.92
66857;BME280;53766;50.280;19.160;2023-11-21T09:18:49;97881.00;;;15.04;61.83
66857;BME280;53766;50.280;19.160;2023-11-21T09:21:16;97878.34;;;15.04;61.74
66857;BME280;53766;50.280;19.160;2023-11-21T09:23:44;97873.03;;;15.04;61.79
66857;BME280;53766;50.280;19.160;2023-11-21T09:26:11;97878.34;;;15.04;61.71
66857;BME280;53766;50.280;19.160;2023-11-21T09:28:39;97867.72;;;15.04;61.78
66857;BME280;53766;50.280;19.160;2023-11-21T09:31:06;97869.38;;;15.05;61.70
66857;BME280;53766;50.280;19.160;2023-11-21T09:33:36;97865.72;;;15.06;61.53
66857;BME280;53766;50.280;19.160;2023-11-21T09:36:05;97871.81;;;15.07;61.73
66857;BME280;53766;50.280;19.160;2023-11-21T09:38:32;97862.88;;;15.08;61.82
66857;BME280;53766;50.280;19.160;2023-11-21T09:41:00;97864.50;;;15.09;61.63
66857;BME280;53766;50.280;19.160;2023-11-21T09:43:28;97869.59;;;15.10;61.31
66857;BME280;53766;50.280;19.160;2023-11-21T09:45:59;97869.59;;;15.10;61.52
66857;BME280;53766;50.280;19.160;2023-11-21T09:48:27;97866.97;;;15.10;61.53
66857;BME280;53766;50.280;19.160;2023-11-21T09:50:56;97863.50;;;15.10;61.50
66857;BME280;53766;50.280;19.160;2023-11-21T09:53:24;97860.84;;;15.10;61.50
66857;BME280;53766;50.280;19.160;2023-11-21T09:55:54;97861.66;;;15.10;61.61
66857;BME280;53766;50.280;19.160;2023-11-21T09:58:22;97870.41;;;15.11;61.42
66857;BME280;53766;50.280;19.160;2023-11-21T10:00:55;97865.13;;;15.11;61.33
66857;BME280;53766;50.280;19.160;2023-11-21T10:03:24;97869.41;;;15.12;61.41
66857;BME280;53766;50.280;19.160;2023-11-21T10:05:52;97863.31;;;15.11;61.23
66857;BME280;53766;50.280;19.160;2023-11-21T10:08:20;97870.22;;;15.12;61.36
66857;BME280;53766;50.280;19.160;2023-11-21T10:10:51;97865.97;;;15.11;61.44
66857;BME280;53766;50.280;19.160;2023-11-21T10:13:19;97871.03;;;15.13;61.33
66857;BME280;53766;50.280;19.160;2023-11-21T10:15:49;97865.97;;;15.11;61.37
66857;BME280;53766;50.280;19.160;2023-11-21T10:18:16;97864.94;;;15.12;61.33
66857;BME280;53766;50.280;19.160;2023-11-21T10:20:44;97858.00;;;15.11;61.43
66857;BME280;53766;50.280;19.160;2023-11-21T10:23:19;97866.53;;;15.13;61.26
66857;BME280;53766;50.280;19.160;2023-11-21T10:25:49;97868.38;;;15.13;61.56
66857;BME280;53766;50.280;19.160;2023-11-21T10:28:17;97864.94;;;15.12;61.36
66857;BME280;53766;50.280;19.160;2023-11-21T10:30:45;97859.44;;;15.14;61.37
66857;BME280;53766;50.280;19.160;2023-11-21T10:33:12;97858.00;;;15.11;61.39
66857;BME280;53766;50.280;19.160;2023-11-21T10:35:47;97855.34;;;15.11;61.38
66857;BME280;53766;50.280;19.160;2023-11-21T10:38:17;97861.47;;;15.12;61.27
66857;BME280;53766;50.280;19.160;2023-11-21T10:40:45;97861.47;;;15.12;61.42
66857;BME280;53766;50.280;19.160;2023-11-21T10:43:13;97858.81;;;15.12;61.38
66857;BME280;53766;50.280;19.160;2023-11-21T10:45:43;97858.00;;;15.11;61.19
66857;BME280;53766;50.280;19.160;2023-11-21T10:48:12;97869.41;;;15.12;61.42
66857;BME280;53766;50.280;19.160;2023-11-21T10:50:45;97856.34;;;15.10;61.18
66857;BME280;53766;50.280;19.160;2023-11-21T10:53:13;97860.03;;;15.09;61.44
66857;BME280;53766;50.280;19.160;2023-11-21T10:55:41;97862.47;;;15.11;61.37
66857;BME280;53766;50.280;19.160;2023-11-21T10:58:08;97863.50;;;15.10;61.36
66857;BME280;53766;50.280;19.160;2023-11-21T11:00:38;97861.66;;;15.10;61.31
66857;BME280;53766;50.280;19.160;2023-11-21T11:03:06;97866.13;;;15.10;61.21
66857;BME280;53766;50.280;19.160;2023-11-21T11:05:41;97868.78;;;15.10;61.35
66857;BME280;53766;50.280;19.160;2023-11-21T11:08:12;97875.94;;;15.09;61.37
66857;BME280;53766;50.280;19.160;2023-11-21T11:10:45;97869.78;;;15.09;61.25
66857;BME280;53766;50.280;19.160;2023-11-21T11:13:14;97870.63;;;15.09;61.13
66857;BME280;53766;50.280;19.160;2023-11-21T11:15:42;97866.97;;;15.10;61.17
66857;BME280;53766;50.280;19.160;2023-11-21T11:18:11;97874.09;;;15.10;61.35
66857;BME280;53766;50.280;19.160;2023-11-21T11:20:39;97863.50;;;15.10;60.99
66857;BME280;53766;50.280;19.160;2023-11-21T11:28:26;97876.75;;;15.10;61.04
66857;BME280;53766;50.280;19.160;2023-11-21T11:31:04;97874.91;;;15.10;61.15
66857;BME280;53766;50.280;19.160;2023-11-21T11:38:47;97875.94;;;15.09;61.03
66857;BME280;53766;50.280;19.160;2023-11-21T11:41:26;97881.25;;;15.09;61.10
66857;BME280;53766;50.280;19.160;2023-11-21T11:43:54;97875.94;;;15.09;61.08
66857;BME280;53766;50.280;19.160;2023-11-21T11:46:39;97882.06;;;15.10;60.98
66857;BME280;53766;50.280;19.160;2023-11-21T11:49:08;97885.72;;;15.09;61.11
66857;BME280;53766;50.280;19.160;2023-11-21T11:51:36;97879.59;;;15.08;60.88
66857;BME280;53766;50.280;19.160;2023-11-21T11:54:03;97878.59;;;15.09;61.21
66857;BME280;53766;50.280;19.160;2023-11-21T11:56:31;97886.56;;;15.09;60.92
66857;BME280;53766;50.280;19.160;2023-11-21T11:59:01;97883.91;;;15.09;61.04
66857;BME280;53766;50.280;19.160;2023-11-21T12:01:31;97882.88;;;15.10;60.95
66857;BME280;53766;50.280;19.160;2023-11-21T12:06:42;97892.66;;;15.10;61.09
66857;BME280;53766;50.280;19.160;2023-11-21T12:11:46;97888.16;;;15.10;60.94
66857;BME280;53766;50.280;19.160;2023-11-21T12:14:13;97888.16;;;15.10;60.87
66857;BME280;53766;50.280;19.160;2023-11-21T12:16:41;97887.34;;;15.10;60.87
66857;BME280;53766;50.280;19.160;2023-11-21T12:19:10;97891.84;;;15.09;60.85
66857;BME280;53766;50.280;19.160;2023-11-21T12:21:38;97883.69;;;15.11;61.01
66857;BME280;53766;50.280;19.160;2023-11-21T12:24:08;97888.16;;;15.10;61.04
66857;BME280;53766;50.280;19.160;2023-11-21T12:26:41;97887.34;;;15.10;61.04
66857;BME280;53766;50.280;19.160;2023-11-21T12:29:08;97885.53;;;15.10;60.88
66857;BME280;53766;50.280;19.160;2023-11-21T12:31:36;97878.59;;;15.09;60.98
66857;BME280;53766;50.280;19.160;2023-11-21T12:34:03;97875.09;;;15.09;60.77
66857;BME280;53766;50.280;19.160;2023-11-21T12:36:31;97885.72;;;15.09;61.02
66857;BME280;53766;50.280;19.160;2023-11-21T12:38:58;97886.56;;;15.09;60.84
66857;BME280;53766;50.280;19.160;2023-11-21T12:41:26;97888.34;;;15.09;60.80
66857;BME280;53766;50.280;19.160;2023-11-21T12:43:54;97890.19;;;15.08;60.91
66857;BME280;53766;50.280;19.160;2023-11-21T12:46:22;97887.53;;;15.08;60.77
66857;BME280;53766;50.280;19.160;2023-11-21T12:48:50;97893.66;;;15.09;61.04
66857;BME280;53766;50.280;19.160;2023-11-21T12:51:17;97884.91;;;15.08;60.82
66857;BME280;53766;50.280;19.160;2023-11-21T12:53:45;97891.00;;;15.09;61.01
66857;BME280;53766;50.280;19.160;2023-11-21T12:56:14;97887.53;;;15.08;60.71
66857;BME280;53766;50.280;19.160;2023-11-21T12:58:46;97884.91;;;15.08;60.72
66857;BME280;53766;50.280;19.160;2023-11-21T13:01:15;97893.66;;;15.09;60.85
66857;BME280;53766;50.280;19.160;2023-11-21T13:03:46;97898.97;;;15.09;60.74
66857;BME280;53766;50.280;19.160;2023-11-21T13:06:15;97905.31;;;15.08;60.68
66857;BME280;53766;50.280;19.160;2023-11-21T13:08:43;97905.31;;;15.08;60.94
66857;BME280;53766;50.280;19.160;2023-11-21T13:11:11;97907.13;;;15.07;60.85